Time;durP1;ratioP1;P1;durP2;ratioP2;P2;SDS_P1;SDS_P2;PMS_P1;PMS_P2;Temp;Humidity;BMP_temperature;BMP_pressure;BME280_temperature;BME280_humidity;BME280_pressure;Samples;Min_cycle;Max_cycle;Signal;HPM_P1;HPM_P2
2023/03/04 00:00:08;;;;;;;23.40;2.50;;;5.60;99.90;;;;;;5062111;28;20124;-84
2023/03/04 00:02:34;;;;;;;20.33;2.88;;;5.70;99.90;;;;;;5049363;28;20049;-84
2023/03/04 00:04:59;;;;;;;20.90;2.65;;;6.00;99.90;;;;;;5032121;28;20091;-85
2023/03/04 00:07:25;;;;;;;18.70;2.17;;;5.60;99.90;;;;;;5032264;28;20504;-84
2023/03/04 00:09:51;;;;;;;16.73;2.90;;;5.60;99.90;;;;;;5031538;28;20884;-84
2023/03/04 00:12:17;;;;;;;22.42;2.85;;;5.60;99.90;;;;;;5048674;28;20033;-85
2023/03/04 00:14:42;;;;;;;15.38;2.33;;;5.70;99.90;;;;;;5048345;28;20272;-84
2023/03/04 00:17:08;;;;;;;22.05;2.88;;;5.60;99.90;;;;;;5048637;28;20048;-84
2023/03/04 00:19:34;;;;;;;18.55;2.35;;;5.70;99.90;;;;;;5048603;28;20485;-83
2023/03/04 00:22:01;;;;;;;18.90;3.33;;;5.70;99.90;;;;;;5048505;28;20041;-84
2023/03/04 00:24:26;;;;;;;22.05;2.50;;;6.10;99.90;;;;;;5048299;28;20052;-84
2023/03/04 00:26:52;;;;;;;21.85;2.50;;;5.70;99.90;;;;;;5048171;28;20049;-84
2023/03/04 00:29:18;;;;;;;18.48;2.67;;;5.70;99.90;;;;;;5031646;28;20142;-83
2023/03/04 00:31:43;;;;;;;17.52;2.53;;;5.70;99.90;;;;;;5032078;28;20041;-84
2023/03/04 00:34:09;;;;;;;25.27;3.22;;;5.70;99.90;;;;;;5047683;28;20045;-84
2023/03/04 00:36:35;;;;;;;18.95;2.30;;;5.80;99.90;;;;;;5031897;28;20146;-84
2023/03/04 00:39:00;;;;;;;16.05;2.42;;;5.70;99.90;;;;;;5030994;28;20314;-83
2023/03/04 00:41:26;;;;;;;18.58;2.60;;;5.60;99.90;;;;;;5030831;28;20080;-84
2023/03/04 00:43:52;;;;;;;17.55;2.90;;;5.90;99.90;;;;;;5048492;28;20052;-83
2023/03/04 00:46:17;;;;;;;17.25;2.70;;;5.80;99.90;;;;;;5048320;28;20406;-83
2023/03/04 00:48:43;;;;;;;17.25;3.40;;;5.70;99.90;;;;;;5030385;28;20060;-84
2023/03/04 00:51:09;;;;;;;23.77;3.03;;;5.70;99.90;;;;;;5048515;28;20389;-83
2023/03/04 00:53:35;;;;;;;24.23;3.03;;;5.60;99.90;;;;;;5047491;28;20037;-83
2023/03/04 00:56:00;;;;;;;24.08;2.15;;;5.60;99.90;;;;;;5030824;28;20043;-84
2023/03/04 00:58:26;;;;;;;16.23;2.65;;;5.60;99.90;;;;;;5031712;28;20510;-84
2023/03/04 01:00:52;;;;;;;14.98;2.72;;;5.60;99.90;;;;;;5056343;28;20045;-85
2023/03/04 01:03:18;;;;;;;14.13;2.15;;;5.60;99.90;;;;;;5047245;28;20548;-84
2023/03/04 01:05:43;;;;;;;19.40;2.30;;;5.60;99.90;;;;;;5030664;28;20053;-83
2023/03/04 01:08:09;;;;;;;17.55;2.50;;;5.60;99.90;;;;;;5047805;28;20060;-84
2023/03/04 01:10:35;;;;;;;17.17;2.75;;;5.70;99.90;;;;;;5029919;28;20053;-84
2023/03/04 01:13:00;;;;;;;22.02;2.42;;;5.70;99.90;;;;;;5064196;28;20049;-85
2023/03/04 01:15:26;;;;;;;23.42;2.63;;;5.60;99.90;;;;;;5031055;28;20044;-84
2023/03/04 01:17:52;;;;;;;18.40;2.47;;;5.60;99.90;;;;;;5030299;28;20503;-85
2023/03/04 01:20:18;;;;;;;20.10;3.13;;;5.70;99.90;;;;;;5047954;28;20523;-84
2023/03/04 01:22:43;;;;;;;25.55;3.10;;;5.60;99.90;;;;;;5031633;28;20389;-84
2023/03/04 01:25:09;;;;;;;20.02;2.38;;;5.60;99.90;;;;;;5046087;28;20079;-85
2023/03/04 01:27:35;;;;;;;19.23;2.88;;;5.60;99.90;;;;;;5031566;28;20047;-84
2023/03/04 01:30:01;;;;;;;24.60;2.97;;;5.80;99.90;;;;;;5046718;28;20444;-84
2023/03/04 01:32:27;;;;;;;30.95;3.13;;;5.60;99.90;;;;;;5031354;28;20501;-84
2023/03/04 01:34:52;;;;;;;15.13;3.17;;;5.50;99.90;;;;;;5047491;28;20045;-84
2023/03/04 01:37:18;;;;;;;18.30;2.85;;;5.50;99.90;;;;;;5029469;28;20416;-84
2023/03/04 01:39:43;;;;;;;15.40;2.63;;;5.50;99.90;;;;;;5046506;28;20044;-85
2023/03/04 01:42:18;;;;;;;16.25;2.42;;;5.50;99.90;;;;;;5047220;28;20076;-84
2023/03/04 01:44:45;;;;;;;17.40;2.17;;;5.50;99.90;;;;;;5029698;28;20489;-84
2023/03/04 01:47:11;;;;;;;14.80;2.10;;;5.50;99.90;;;;;;5030393;28;20489;-84
2023/03/04 01:49:37;;;;;;;15.32;2.13;;;5.90;99.90;;;;;;5063760;28;20151;-83
2023/03/04 01:52:03;;;;;;;21.02;2.72;;;5.50;99.90;;;;;;5046469;28;20128;-83
2023/03/04 01:54:28;;;;;;;17.50;2.58;;;5.50;99.90;;;;;;5045940;28;20128;-84
2023/03/04 01:56:55;;;;;;;17.73;2.33;;;5.40;99.90;;;;;;5047098;28;20083;-85
2023/03/04 01:59:23;;;;;;;20.02;3.00;;;5.40;99.90;;;;;;5029551;28;20045;-84
2023/03/04 02:01:55;;;;;;;20.85;3.40;;;5.40;99.90;;;;;;5083391;28;20571;-84
2023/03/04 02:04:24;;;;;;;23.45;3.38;;;5.40;99.90;;;;;;5050432;28;20101;-84
2023/03/04 02:06:50;;;;;;;19.35;3.13;;;5.40;99.90;;;;;;5052930;28;20495;-84
2023/03/04 02:09:17;;;;;;;17.80;2.60;;;5.70;99.90;;;;;;5052205;28;20082;-84
2023/03/04 02:11:45;;;;;;;22.98;3.03;;;5.30;99.90;;;;;;5053717;28;20047;-84
2023/03/04 02:14:12;;;;;;;19.58;3.15;;;5.30;99.90;;;;;;5052420;28;20457;-84
2023/03/04 02:16:38;;;;;;;19.13;2.47;;;5.30;99.90;;;;;;5069958;28;20040;-84
2023/03/04 02:19:08;;;;;;;18.75;2.65;;;5.30;99.90;;;;;;5053081;28;20749;-84
2023/03/04 02:21:34;;;;;;;24.85;3.08;;;5.50;99.90;;;;;;5052640;28;20106;-84
2023/03/04 02:24:08;;;;;;;20.27;2.50;;;5.30;99.90;;;;;;5052653;28;20055;-84
2023/03/04 02:26:34;;;;;;;18.67;2.80;;;5.30;99.90;;;;;;5068777;28;20080;-84
2023/03/04 02:29:02;;;;;;;19.67;2.47;;;5.30;99.90;;;;;;5053161;28;20457;-83
2023/03/04 02:31:31;;;;;;;19.20;3.55;;;5.60;99.90;;;;;;5053410;28;20051;-84
2023/03/04 02:34:01;;;;;;;21.63;2.53;;;5.30;99.90;;;;;;5069080;28;20040;-84
2023/03/04 02:36:28;;;;;;;22.15;2.60;;;5.60;99.90;;;;;;5070344;28;20039;-84
2023/03/04 02:38:54;;;;;;;23.17;3.08;;;5.30;99.90;;;;;;5051931;28;20135;-84
2023/03/04 02:41:24;;;;;;;13.85;2.85;;;5.10;99.90;;;;;;5052617;28;20086;-84
2023/03/04 02:43:54;;;;;;;18.33;1.98;;;5.30;99.90;;;;;;5069606;28;20052;-83
2023/03/04 02:46:20;;;;;;;14.70;2.10;;;5.30;99.90;;;;;;5053104;28;20040;-84
2023/03/04 02:48:45;;;;;;;15.98;2.30;;;5.30;99.90;;;;;;5068854;28;20059;-84
2023/03/04 02:51:11;;;;;;;18.00;2.40;;;5.40;99.90;;;;;;5053062;28;20044;-84
2023/03/04 02:53:37;;;;;;;19.25;2.08;;;5.30;99.90;;;;;;5052652;28;20082;-84
2023/03/04 02:56:03;;;;;;;15.00;1.90;;;5.30;99.90;;;;;;5067929;28;20036;-84
2023/03/04 02:58:28;;;;;;;18.05;2.30;;;5.30;99.90;;;;;;5069845;28;20048;-84
2023/03/04 03:00:54;;;;;;;23.17;2.38;;;5.40;99.90;;;;;;5049311;28;20044;-84
2023/03/04 03:03:21;;;;;;;16.40;2.75;;;5.30;99.90;;;;;;5031745;28;20060;-84
2023/03/04 03:05:46;;;;;;;14.60;2.25;;;5.50;99.90;;;;;;5049463;28;20090;-84
2023/03/04 03:08:12;;;;;;;22.05;2.53;;;5.50;99.90;;;;;;5048667;28;20528;-83
2023/03/04 03:10:38;;;;;;;21.52;3.42;;;5.30;99.90;;;;;;5031915;28;20041;-84
2023/03/04 03:13:03;;;;;;;18.55;2.22;;;5.60;99.90;;;;;;5049388;28;20134;-84
2023/03/04 03:15:29;;;;;;;17.63;2.55;;;5.40;99.90;;;;;;5048702;28;20149;-84
2023/03/04 03:17:55;;;;;;;16.40;2.25;;;5.40;99.90;;;;;;5049544;28;20451;-84
2023/03/04 03:20:21;;;;;;;19.05;1.80;;;5.40;99.90;;;;;;5032343;28;20044;-85
2023/03/04 03:22:47;;;;;;;21.20;3.60;;;5.40;99.90;;;;;;5032266;28;20043;-84
2023/03/04 03:25:14;;;;;;;20.13;3.28;;;5.40;99.90;;;;;;5048342;28;20505;-84
2023/03/04 03:27:40;;;;;;;22.40;2.70;;;5.40;99.90;;;;;;5032841;28;20098;-84
2023/03/04 03:30:08;;;;;;;16.88;2.17;;;5.30;99.90;;;;;;5048923;28;20476;-84
2023/03/04 03:32:33;;;;;;;12.68;2.20;;;5.40;99.90;;;;;;5048985;28;20504;-84
2023/03/04 03:35:00;;;;;;;17.17;2.22;;;5.40;99.90;;;;;;5033286;28;20132;-84
2023/03/04 03:37:26;;;;;;;16.92;2.05;;;5.30;99.90;;;;;;5031712;28;20135;-84
2023/03/04 03:39:52;;;;;;;14.38;1.98;;;5.40;99.90;;;;;;5034739;28;20127;-84
2023/03/04 03:42:18;;;;;;;9.80;1.83;;;5.40;99.90;;;;;;5053275;28;20056;-84
2023/03/04 03:44:43;;;;;;;16.20;1.92;;;5.70;99.90;;;;;;5034851;28;20636;-84
2023/03/04 03:47:09;;;;;;;13.75;2.55;;;5.50;99.90;;;;;;5036550;28;20054;-84
2023/03/04 03:49:35;;;;;;;16.70;1.98;;;5.30;99.90;;;;;;5052383;28;20416;-84
2023/03/04 03:52:00;;;;;;;15.85;2.30;;;5.40;99.90;;;;;;5052388;28;20044;-84
2023/03/04 03:54:26;;;;;;;19.65;2.33;;;5.30;99.90;;;;;;5052043;28;20044;-85
2023/03/04 03:56:52;;;;;;;19.35;2.03;;;5.30;99.90;;;;;;5052567;28;20041;-84
2023/03/04 03:59:17;;;;;;;23.83;2.30;;;5.90;99.90;;;;;;5051895;28;20056;-84
2023/03/04 04:01:43;;;;;;;15.38;1.88;;;5.30;99.90;;;;;;5051393;28;20470;-84
2023/03/04 04:04:09;;;;;;;17.27;1.60;;;5.30;99.90;;;;;;5035833;28;20067;-85
2023/03/04 04:06:35;;;;;;;17.70;1.90;;;5.30;99.90;;;;;;5051881;28;20061;-84
2023/03/04 04:09:00;;;;;;;19.98;1.73;;;5.60;99.90;;;;;;5051082;28;20051;-84
2023/03/04 04:11:26;;;;;;;17.33;3.17;;;5.30;99.90;;;;;;5035993;28;20040;-83
2023/03/04 04:13:52;;;;;;;16.50;2.08;;;5.80;99.90;;;;;;5034785;28;20083;-84
2023/03/04 04:16:18;;;;;;;17.27;1.98;;;5.30;99.90;;;;;;5052090;28;20474;-84
2023/03/04 04:18:44;;;;;;;19.30;2.67;;;5.40;99.90;;;;;;5035809;28;20052;-85
2023/03/04 04:21:09;;;;;;;16.60;1.83;;;5.40;99.90;;;;;;5034462;28;20059;-85
2023/03/04 04:23:35;;;;;;;13.68;1.52;;;5.60;99.90;;;;;;5035084;28;20044;-84
2023/03/04 04:26:01;;;;;;;12.13;1.40;;;5.40;99.90;;;;;;5034094;28;20040;-84
2023/03/04 04:28:26;;;;;;;13.93;1.45;;;5.30;99.90;;;;;;5035641;28;20149;-84
2023/03/04 04:30:52;;;;;;;14.57;2.00;;;5.50;99.90;;;;;;5051971;28;20458;-84
2023/03/04 04:33:18;;;;;;;12.57;1.35;;;5.40;99.90;;;;;;5050805;28;20047;-84
2023/03/04 04:35:43;;;;;;;16.50;1.50;;;5.60;99.90;;;;;;5035431;28;20037;-84
2023/03/04 04:38:09;;;;;;;9.82;1.60;;;5.40;99.90;;;;;;5051796;28;20044;-84
2023/03/04 04:40:35;;;;;;;11.23;1.48;;;5.40;99.90;;;;;;5033462;28;20131;-85
2023/03/04 04:43:01;;;;;;;14.15;1.60;;;5.40;99.90;;;;;;5052137;28;20044;-85
2023/03/04 04:45:27;;;;;;;15.18;2.17;;;5.70;99.90;;;;;;5034916;28;20495;-85
2023/03/04 04:47:56;;;;;;;10.48;1.67;;;5.50;99.90;;;;;;5034570;28;20566;-84
2023/03/04 04:50:22;;;;;;;15.32;1.52;;;5.60;99.90;;;;;;5033872;28;20037;-85
2023/03/04 04:52:49;;;;;;;15.00;1.80;;;5.60;99.90;;;;;;5034918;28;20048;-84
2023/03/04 04:55:14;;;;;;;16.33;2.75;;;5.40;99.90;;;;;;5033187;28;20033;-84
2023/03/04 04:57:40;;;;;;;15.63;2.00;;;5.40;99.90;;;;;;5034502;28;20040;-84
2023/03/04 05:00:08;;;;;;;17.27;3.35;;;5.40;99.90;;;;;;5037136;28;20047;-84
2023/03/04 05:02:36;;;;;;;16.80;1.50;;;5.40;99.90;;;;;;5033593;28;20056;-85
2023/03/04 05:05:03;;;;;;;10.15;1.45;;;5.70;99.90;;;;;;5034755;28;20056;-85
2023/03/04 05:07:28;;;;;;;20.10;2.10;;;5.60;99.90;;;;;;5051540;28;20079;-86
2023/03/04 05:09:54;;;;;;;11.95;1.80;;;5.30;99.90;;;;;;5033286;28;20488;-85
2023/03/04 05:12:20;;;;;;;15.77;2.00;;;5.30;99.90;;;;;;5051518;28;20044;-85
2023/03/04 05:14:45;;;;;;;18.60;2.50;;;5.30;99.90;;;;;;5034276;28;20041;-85
2023/03/04 05:17:11;;;;;;;13.57;1.42;;;5.30;99.90;;;;;;5033833;28;20139;-85
2023/03/04 05:19:37;;;;;;;14.20;1.50;;;5.90;99.90;;;;;;5034138;28;20134;-84
2023/03/04 05:22:02;;;;;;;16.63;2.00;;;5.30;99.90;;;;;;5051026;28;20135;-85
2023/03/04 05:24:28;;;;;;;19.65;1.92;;;5.30;99.90;;;;;;5033796;28;20083;-85
2023/03/04 05:26:54;;;;;;;11.95;1.60;;;5.30;99.90;;;;;;5050511;28;20417;-85
2023/03/04 05:29:20;;;;;;;16.73;1.73;;;5.30;99.90;;;;;;5033895;28;20111;-85
2023/03/04 05:31:45;;;;;;;13.70;2.42;;;5.30;99.90;;;;;;5034404;28;20079;-85
2023/03/04 05:34:11;;;;;;;16.70;1.95;;;5.30;99.90;;;;;;5050643;28;20418;-85
2023/03/04 05:36:37;;;;;;;16.30;2.60;;;5.30;99.90;;;;;;5050467;28;20479;-85
2023/03/04 05:39:02;;;;;;;19.13;3.40;;;5.30;99.90;;;;;;5033014;28;20044;-85
2023/03/04 05:41:28;;;;;;;18.00;1.80;;;5.40;99.90;;;;;;5051104;28;20052;-85
2023/03/04 05:43:55;;;;;;;15.80;2.67;;;5.30;99.90;;;;;;5049791;28;20041;-85
2023/03/04 05:46:24;;;;;;;18.75;2.42;;;5.80;99.90;;;;;;5034126;28;20048;-84
2023/03/04 05:48:51;;;;;;;23.48;2.42;;;5.30;99.90;;;;;;5034075;28;20500;-85
2023/03/04 05:51:17;;;;;;;18.77;2.20;;;5.30;99.90;;;;;;5032960;28;20048;-85
2023/03/04 05:53:43;;;;;;;16.40;2.65;;;5.30;99.90;;;;;;5033503;28;20052;-85
2023/03/04 05:56:11;;;;;;;19.13;2.53;;;5.30;99.90;;;;;;5033855;28;20048;-86
2023/03/04 05:58:37;;;;;;;16.40;2.17;;;5.30;99.90;;;;;;5033342;28;20050;-85
2023/03/04 06:01:03;;;;;;;23.25;3.13;;;5.30;99.90;;;;;;5043052;28;20040;-85
2023/03/04 06:03:29;;;;;;;20.15;2.50;;;5.30;99.90;;;;;;5033904;28;20088;-84
2023/03/04 06:05:55;;;;;;;14.73;1.83;;;5.40;99.90;;;;;;5032976;28;20095;-84
2023/03/04 06:08:22;;;;;;;14.02;2.28;;;5.40;99.90;;;;;;5032945;28;20056;-85
2023/03/04 06:10:52;;;;;;;14.27;1.80;;;5.40;99.90;;;;;;5033319;28;20090;-85
2023/03/04 06:13:18;;;;;;;20.48;2.15;;;5.40;99.90;;;;;;5032507;28;20086;-85
2023/03/04 06:15:45;;;;;;;12.70;1.73;;;5.90;99.90;;;;;;5050346;28;20048;-85
2023/03/04 06:18:11;;;;;;;14.50;1.75;;;5.40;99.90;;;;;;5033041;28;20389;-85
2023/03/04 06:20:37;;;;;;;17.17;2.75;;;5.40;99.90;;;;;;5049315;28;20098;-85
2023/03/04 06:23:03;;;;;;;10.80;1.42;;;5.40;99.90;;;;;;5033492;28;20043;-86
2023/03/04 06:25:30;;;;;;;17.75;1.75;;;5.40;99.90;;;;;;5048249;28;20462;-85
2023/03/04 06:27:55;;;;;;;16.48;1.70;;;5.40;99.90;;;;;;5049980;28;20045;-85
2023/03/04 06:30:22;;;;;;;12.48;1.98;;;5.40;99.90;;;;;;5049680;28;20458;-85
2023/03/04 06:32:47;;;;;;;10.77;1.58;;;5.90;99.90;;;;;;5049474;28;20408;-85
2023/03/04 06:35:14;;;;;;;18.02;1.42;;;5.30;99.90;;;;;;5050021;28;20040;-85
2023/03/04 06:37:41;;;;;;;19.65;2.20;;;5.30;99.90;;;;;;5033210;28;20477;-85
2023/03/04 06:40:07;;;;;;;10.32;1.55;;;5.30;99.90;;;;;;5031650;28;20049;-85
2023/03/04 06:42:34;;;;;;;16.15;1.67;;;5.30;99.90;;;;;;5049428;28;20049;-84
2023/03/04 06:45:00;;;;;;;12.73;1.60;;;5.30;99.90;;;;;;5049658;28;20102;-85
2023/03/04 06:47:27;;;;;;;14.30;2.00;;;5.30;99.90;;;;;;5065706;28;20036;-84
2023/03/04 06:49:52;;;;;;;14.10;2.78;;;5.70;99.90;;;;;;5066834;28;20052;-85
2023/03/04 06:52:18;;;;;;;17.10;1.73;;;5.40;99.90;;;;;;5067049;28;20048;-85
2023/03/04 06:54:44;;;;;;;13.77;3.13;;;5.40;99.90;;;;;;5064668;28;20079;-85
2023/03/04 06:57:10;;;;;;;19.80;2.63;;;5.40;99.90;;;;;;5066775;28;20045;-86
2023/03/04 06:59:35;;;;;;;19.30;2.60;;;5.40;99.90;;;;;;5049401;28;20040;-85
2023/03/04 07:02:01;;;;;;;19.80;2.97;;;5.40;99.90;;;;;;5049405;28;20044;-86
2023/03/04 07:04:27;;;;;;;20.48;2.00;;;5.40;99.90;;;;;;5033768;28;20186;-87
2023/03/04 07:06:53;;;;;;;21.55;2.53;;;5.40;99.90;;;;;;5033808;28;20056;-88
2023/03/04 07:09:18;;;;;;;18.67;2.05;;;5.50;99.90;;;;;;5032309;28;20041;-87
2023/03/04 07:11:44;;;;;;;15.13;2.63;;;5.50;99.90;;;;;;5033551;28;20125;-86
2023/03/04 07:14:10;;;;;;;19.63;2.47;;;5.40;99.90;;;;;;5052325;28;20047;-86
2023/03/04 07:16:36;;;;;;;15.52;2.38;;;5.50;99.90;;;;;;5036350;28;20508;-85
2023/03/04 07:19:02;;;;;;;18.25;1.88;;;5.40;99.90;;;;;;5069998;28;20055;-84
2023/03/04 07:21:28;;;;;;;19.35;1.95;;;5.60;99.90;;;;;;5037352;28;20041;-84
2023/03/04 07:23:55;;;;;;;14.55;1.70;;;5.50;99.90;;;;;;5035321;28;20078;-86
2023/03/04 07:26:21;;;;;;;23.10;2.47;;;5.50;99.90;;;;;;5037184;28;20044;-85
2023/03/04 07:28:47;;;;;;;16.52;2.22;;;6.00;99.90;;;;;;5037475;28;20040;-84
2023/03/04 07:31:20;;;;;;;25.02;4.28;;;5.50;99.90;;;;;;5036366;28;20056;-85
2023/03/04 07:33:46;;;;;;;;;;;5.60;99.90;;;;;;5036722;28;20044;-85
2023/03/04 07:36:13;;;;;;;17.70;2.78;;;5.10;99.90;;;;;;5035941;28;19928;-85
2023/03/04 07:38:43;;;;;;;24.30;3.50;;;5.90;99.90;;;;;;5052619;28;20045;-84
2023/03/04 07:41:08;;;;;;;25.90;3.25;;;5.60;99.90;;;;;;5052859;28;20051;-83
2023/03/04 07:43:34;;;;;;;22.90;3.70;;;5.60;99.90;;;;;;5052012;28;20567;-87
2023/03/04 07:46:00;;;;;;;21.13;2.88;;;5.60;99.90;;;;;;5037015;28;20210;-84
2023/03/04 07:48:27;;;;;;;31.45;4.70;;;5.70;99.90;;;;;;5038077;28;20044;-84
2023/03/04 07:51:08;;;;;;;29.20;4.10;;;5.70;99.90;;;;;;5039378;28;20506;-87
2023/03/04 07:53:35;;;;;;;25.67;4.63;;;5.60;99.90;;;;;;5069038;28;20098;-84
2023/03/04 07:56:02;;;;;;;21.60;3.45;;;5.60;99.90;;;;;;5046859;28;20044;-84
2023/03/04 07:58:28;;;;;;;24.52;3.90;;;5.60;99.90;;;;;;5051997;28;20441;-84
2023/03/04 08:00:56;;;;;;;29.80;4.25;;;5.50;99.90;;;;;;5052579;28;20144;-84
2023/03/04 08:03:22;;;;;;;33.92;4.68;;;5.50;99.90;;;;;;5035966;28;20045;-84
2023/03/04 08:05:48;;;;;;;31.70;5.22;;;5.50;99.90;;;;;;5067897;28;20071;-85
2023/03/04 08:08:14;;;;;;;38.40;4.32;;;6.10;99.90;;;;;;5035441;28;20060;-85
2023/03/04 08:10:39;;;;;;;31.48;4.03;;;5.60;99.90;;;;;;5035342;28;20102;-85
2023/03/04 08:13:06;;;;;;;29.70;4.10;;;5.60;99.90;;;;;;5034705;28;20044;-85
2023/03/04 08:15:34;;;;;;;38.40;5.88;;;5.60;99.90;;;;;;5035824;28;20040;-86
2023/03/04 08:18:00;;;;;;;41.08;5.53;;;5.90;99.90;;;;;;5035021;28;20052;-85
2023/03/04 08:20:26;;;;;;;31.40;4.65;;;5.70;99.90;;;;;;5035945;28;20055;-85
2023/03/04 08:22:53;;;;;;;31.30;5.05;;;5.70;99.90;;;;;;5052243;28;20056;-84
2023/03/04 08:25:19;;;;;;;34.47;4.57;;;5.70;99.90;;;;;;5052810;28;20499;-93
2023/03/04 08:27:44;;;;;;;39.88;6.00;;;5.80;99.90;;;;;;5054588;28;20043;-90
2023/03/04 08:30:10;;;;;;;39.08;4.45;;;5.70;99.90;;;;;;5056760;28;20032;-90
2023/03/04 08:32:36;;;;;;;27.55;3.88;;;5.70;99.90;;;;;;5057097;28;20048;-89
2023/03/04 08:35:02;;;;;;;21.00;4.03;;;5.80;99.90;;;;;;5057814;28;20039;-90
2023/03/04 08:37:29;;;;;;;30.50;4.43;;;5.80;99.90;;;;;;5057778;28;20431;-88
2023/03/04 08:39:55;;;;;;;34.00;5.15;;;5.90;99.90;;;;;;5056082;28;20052;-89
2023/03/04 08:42:20;;;;;;;26.92;4.35;;;5.90;99.90;;;;;;5056394;28;20100;-88
2023/03/04 08:44:46;;;;;;;31.55;4.57;;;5.90;99.90;;;;;;5056519;28;20036;-88
2023/03/04 08:47:12;;;;;;;31.70;4.30;;;6.00;99.90;;;;;;5055421;28;20105;-88
2023/03/04 08:49:37;;;;;;;25.48;3.65;;;6.40;99.90;;;;;;5056191;28;20047;-87
2023/03/04 08:52:04;;;;;;;29.52;4.43;;;6.20;99.90;;;;;;5056175;28;20063;-87
2023/03/04 08:54:29;;;;;;;37.33;4.07;;;6.10;99.90;;;;;;5054689;28;20048;-87
2023/03/04 08:56:55;;;;;;;25.63;3.55;;;6.10;99.90;;;;;;5056184;28;20067;-87
2023/03/04 08:59:21;;;;;;;26.65;4.00;;;6.20;99.90;;;;;;5055158;28;20185;-87
2023/03/04 09:01:46;;;;;;;25.33;3.95;;;6.20;99.90;;;;;;5054836;28;20435;-86
2023/03/04 09:04:12;;;;;;;30.60;4.30;;;6.20;99.90;;;;;;5055918;28;20051;-86
2023/03/04 09:06:38;;;;;;;22.73;3.28;;;6.30;99.90;;;;;;5051351;28;20041;-87
2023/03/04 09:09:04;;;;;;;25.17;3.70;;;6.30;99.90;;;;;;5050796;28;20052;-87
2023/03/04 09:11:30;;;;;;;21.65;3.58;;;6.30;99.90;;;;;;5051756;28;20044;-87
2023/03/04 09:13:56;;;;;;;19.02;3.25;;;6.40;99.90;;;;;;5051758;28;20045;-87
2023/03/04 09:16:22;;;;;;;17.63;2.38;;;6.40;99.90;;;;;;5068090;28;20068;-87
2023/03/04 09:18:48;;;;;;;21.52;2.90;;;6.40;99.90;;;;;;5051172;28;20047;-86
2023/03/04 09:21:15;;;;;;;17.58;2.63;;;6.40;99.90;;;;;;5051616;28;20044;-87
2023/03/04 09:23:41;;;;;;;19.00;2.33;;;6.40;99.90;;;;;;5050764;28;20177;-86
2023/03/04 09:26:22;;;;;;;13.82;2.20;;;6.40;99.90;;;;;;5051995;28;20087;-86
2023/03/04 09:28:51;;;;;;;12.23;2.03;;;6.50;99.90;;;;;;5046536;28;20044;-87
2023/03/04 09:31:17;;;;;;;14.60;2.00;;;6.40;99.90;;;;;;5031672;28;20049;-88
2023/03/04 09:33:43;;;;;;;11.90;1.42;;;6.30;99.90;;;;;;5048654;28;20041;-87
2023/03/04 09:36:12;;;;;;;11.52;1.48;;;6.30;99.90;;;;;;5048167;28;20044;-87
2023/03/04 09:38:38;;;;;;;12.55;1.42;;;6.30;99.90;;;;;;5031640;28;20049;-90
2023/03/04 09:41:08;;;;;;;13.50;1.60;;;6.30;99.90;;;;;;5031579;28;20048;-86
2023/03/04 09:43:35;;;;;;;12.07;1.70;;;6.40;99.90;;;;;;5030099;28;20051;-88
2023/03/04 09:46:05;;;;;;;10.48;1.58;;;6.50;99.90;;;;;;5033421;28;20048;-94
2023/03/04 09:48:42;;;;;;;13.40;1.80;;;6.60;99.90;;;;;;5033802;28;20047;-89
2023/03/04 09:51:20;;;;;;;10.65;1.85;;;6.60;99.90;;;;;;5033581;28;20049;-89
2023/03/04 09:54:02;;;;;;;16.60;2.25;;;6.80;99.90;;;;;;5031843;28;20414;-89
2023/03/04 09:56:28;;;;;;;20.67;2.15;;;6.90;99.90;;;;;;5031540;28;20131;-89
2023/03/04 09:58:54;;;;;;;14.27;2.00;;;7.10;99.90;;;;;;5031676;28;20131;-87
2023/03/04 10:01:25;;;;;;;14.05;2.20;;;7.10;99.90;;;;;;5031201;28;20135;-86
2023/03/04 10:03:58;;;;;;;14.55;2.03;;;7.10;99.90;;;;;;5030390;28;20037;-86
2023/03/04 10:06:24;;;;;;;25.27;2.92;;;7.00;99.90;;;;;;5033886;28;20057;-87
2023/03/04 10:09:00;;;;;;;24.33;3.25;;;6.70;99.90;;;;;;5047027;28;20063;-86
2023/03/04 10:11:28;;;;;;;27.00;4.10;;;6.70;99.90;;;;;;5052757;28;20514;-87
2023/03/04 10:14:15;;;;;;;16.55;3.40;;;6.60;99.90;;;;;;5067720;28;20056;-87
2023/03/04 10:16:47;;;;;;;24.00;3.97;;;6.60;99.90;;;;;;5050959;28;20041;-87
2023/03/04 10:19:41;;;;;;;16.80;3.63;;;6.60;99.90;;;;;;5068455;28;20058;-89
2023/03/04 10:22:19;;;;;;;27.42;4.10;;;6.50;99.90;;;;;;5032378;28;20060;-91
2023/03/04 10:24:46;;;;;;;28.13;4.18;;;6.70;99.90;;;;;;5031492;28;20218;-90
2023/03/04 10:27:17;;;;;;;22.92;3.53;;;6.70;99.90;;;;;;5032576;28;20048;-90
2023/03/04 10:29:43;;;;;;;33.78;4.03;;;6.80;99.90;;;;;;5031882;28;20088;-89
2023/03/04 10:32:15;;;;;;;25.08;3.65;;;6.80;99.90;;;;;;5038929;28;20079;-87
2023/03/04 10:34:40;;;;;;;15.50;2.65;;;6.80;99.90;;;;;;5050131;28;20052;-85
2023/03/04 10:37:07;;;;;;;21.50;3.60;;;6.70;99.90;;;;;;5049689;28;20048;-89
2023/03/04 10:39:45;;;;;;;20.27;2.83;;;6.70;99.90;;;;;;5049938;28;20066;-86
2023/03/04 10:42:14;;;;;;;15.48;3.13;;;6.70;99.90;;;;;;5050507;28;20056;-86
2023/03/04 10:44:49;;;;;;;21.80;3.15;;;6.70;99.90;;;;;;5051440;28;20040;-89
2023/03/04 10:47:15;;;;;;;19.42;3.00;;;6.80;99.90;;;;;;5051034;28;20480;-86
2023/03/04 10:49:52;;;;;;;20.50;3.50;;;6.80;99.90;;;;;;5054711;28;20080;-92
2023/03/04 10:52:26;;;;;;;24.83;3.33;;;6.90;99.90;;;;;;5055390;28;20541;-87
2023/03/04 10:54:54;;;;;;;19.60;3.38;;;6.90;99.90;;;;;;5053972;28;20361;-86
2023/03/04 10:57:37;;;;;;;21.35;2.72;;;6.80;99.90;;;;;;5065289;28;20051;-90
2023/03/04 11:00:16;;;;;;;22.85;4.20;;;6.80;99.90;;;;;;5037029;28;20148;-88
2023/03/04 11:02:42;;;;;;;25.23;3.78;;;6.80;99.90;;;;;;5035873;28;20082;-89
2023/03/04 11:05:09;;;;;;;28.23;3.30;;;6.70;99.90;;;;;;5059548;28;20052;-89
2023/03/04 11:07:39;;;;;;;20.42;3.33;;;6.70;99.90;;;;;;5054962;28;20081;-88
2023/03/04 11:10:09;;;;;;;20.90;3.58;;;6.60;99.90;;;;;;5054767;28;20059;-88
2023/03/04 11:12:35;;;;;;;18.63;3.28;;;6.70;99.90;;;;;;5054546;28;20131;-88
2023/03/04 11:15:02;;;;;;;20.60;3.17;;;6.70;99.90;;;;;;5054408;28;20140;-88
2023/03/04 11:17:44;;;;;;;23.23;3.03;;;6.70;99.90;;;;;;5055325;28;20407;-88
2023/03/04 11:20:17;;;;;;;11.80;2.70;;;6.80;99.90;;;;;;5055233;28;20036;-88
2023/03/04 11:22:45;;;;;;;17.63;2.85;;;6.90;99.90;;;;;;5054933;28;20072;-88
2023/03/04 11:25:25;;;;;;;17.10;2.75;;;7.00;99.90;;;;;;5054105;28;20047;-87
2023/03/04 11:27:56;;;;;;;14.93;2.88;;;7.10;99.90;;;;;;5070136;28;20645;-87
2023/03/04 11:30:46;;;;;;;16.52;2.78;;;7.10;99.90;;;;;;5053422;28;20041;-84
2023/03/04 11:33:21;;;;;;;20.70;3.60;;;7.00;99.90;;;;;;5052515;28;20064;-87
2023/03/04 11:36:13;;;;;;;21.63;3.22;;;6.90;99.90;;;;;;5032702;28;20048;-84
2023/03/04 11:38:46;;;;;;;15.05;2.70;;;6.90;99.90;;;;;;5032652;28;20049;-87
2023/03/04 11:41:19;;;;;;;;;;;6.80;99.90;;;;;;5033784;28;20110;-88
2023/03/04 11:43:46;;;;;;;22.73;3.35;;;6.60;99.90;;;;;;5032512;28;20307;-86
2023/03/04 11:46:28;;;;;;;20.85;3.15;;;6.60;99.90;;;;;;5033775;28;20045;-89
2023/03/04 11:49:12;;;;;;;19.80;3.10;;;6.60;99.90;;;;;;5033718;28;20045;-85
2023/03/04 11:51:55;;;;;;;20.40;3.55;;;6.70;99.90;;;;;;5033156;28;20049;-86
2023/03/04 11:54:38;;;;;;;;;;;6.80;99.90;;;;;;5049767;28;20377;-84
2023/03/04 11:57:17;;;;;;;18.30;2.38;;;6.80;99.90;;;;;;5045598;28;19924;-84
2023/03/04 12:00:15;;;;;;;17.33;3.08;;;6.70;99.90;;;;;;5067292;28;20075;-84
2023/03/04 12:02:56;;;;;;;12.30;2.53;;;6.70;99.90;;;;;;5050818;28;20044;-85
2023/03/04 12:05:34;;;;;;;21.48;2.83;;;6.70;99.90;;;;;;5067956;28;20056;-85
2023/03/04 12:08:07;;;;;;;29.98;3.28;;;6.80;99.90;;;;;;5052969;28;20087;-85
2023/03/04 12:10:39;;;;;;;23.73;3.22;;;6.90;99.90;;;;;;5051071;28;20139;-84
2023/03/04 12:13:38;;;;;;;21.98;2.92;;;7.10;99.90;;;;;;5052697;28;20123;-84
2023/03/04 12:16:08;;;;;;;22.00;3.80;;;7.20;99.90;;;;;;5069029;28;20051;-84
2023/03/04 12:18:35;;;;;;;23.27;3.35;;;7.30;99.90;;;;;;5051700;28;20056;-84
2023/03/04 12:21:06;;;;;;;19.58;2.95;;;7.30;99.90;;;;;;5052244;28;20046;-84
2023/03/04 12:23:44;;;;;;;17.13;3.03;;;7.20;99.90;;;;;;5069021;28;20469;-84
2023/03/04 12:26:35;;;;;;;17.95;2.65;;;7.10;99.90;;;;;;5068395;28;20484;-84
2023/03/04 12:29:05;;;;;;;16.60;2.95;;;7.10;99.90;;;;;;5052221;28;20040;-84
2023/03/04 12:31:44;;;;;;;21.63;3.25;;;7.20;99.90;;;;;;5051365;28;20036;-84
2023/03/04 12:34:37;;;;;;;21.60;3.85;;;7.30;99.90;;;;;;5068152;28;20093;-84
2023/03/04 12:37:10;;;;;;;21.45;3.05;;;7.20;99.90;;;;;;5051985;28;20177;-84
2023/03/04 12:39:45;;;;;;;21.95;3.50;;;7.00;99.90;;;;;;5049923;28;20475;-83
2023/03/04 12:42:29;;;;;;;17.02;2.92;;;6.80;99.90;;;;;;5051880;28;20078;-84
2023/03/04 12:45:16;;;;;;;24.33;3.28;;;6.70;99.90;;;;;;5051228;28;20053;-84
2023/03/04 12:47:47;;;;;;;22.92;3.70;;;6.70;99.90;;;;;;5051148;28;20037;-84
2023/03/04 12:50:38;;;;;;;21.02;3.63;;;6.90;99.90;;;;;;5068618;28;20083;-84
2023/03/04 12:53:16;;;;;;;19.67;3.53;;;7.10;99.90;;;;;;5067163;28;20558;-83